Nespelem, WA (99155)

7:52 AM PDT on July 23, 2014 (GMT -0700)
RAWS NESPELEM WA US (MNEFW1) Elev 1899 ft | 48.14 °N, 118.97 °W | Change Station
Active Advisory: Flash Flood Watch

Current weather conditions updated 55 minutes ago

Partly Cloudy
Partly Cloudy
64 °F
Feels Like 64 °F
N
5
Wind Variable Wind from NNW
Gusts 6.0 mph

Today is forecast to be Warmer than yesterday. Afternoon thunderstorms.

Today
High -- | Low -- °F
--% Chance of Precip.
Yesterday
High -- | Low -- °F
Precip. -- in
5:21 AM 8:44 PM
Waning Crescent, 10% visible
Pressure 30.00 in
Visibility 10.0 miles
Clouds Mostly Cloudy 4900 ft
Dew Point 56 °F
Humidity 74%
Rainfall 0.00 in
Snow Depth 1 in
UV 0 out of 12
Pollen 5.40 out of 12
Air Quality Not available.
Flu Activity Not available.
METAR KOMK 231353Z AUTO 04005KT 10SM BKN049 18/12 A3001 RMK AO2 SLP158 T01830117

More Conditions Fewer Conditions

Pressure 30.00 in
Visibility 10.0 miles
Clouds Mostly Cloudy 4900 ft
Dew Point 56 °F
Humidity 74%
Rainfall 0.00 in
Snow Depth 1 in
UV 0 out of 12
Pollen 5.40 out of 12
Air Quality Not available.
Flu Activity Not available.
METAR KOMK 231353Z AUTO 04005KT 10SM BKN049 18/12 A3001 RMK AO2 SLP158 T01830117

More Conditions Fewer Conditions

10-Day Weather Forecast

Almanac

Astronomy

Jul. 23, 2014 Rise Set
Actual Time 5:21 AM PDT 8:44 PM PDT
Civil Twilight 4:42 AM PDT 9:23 PM PDT
Nautical Twilight 3:52 AM PDT 10:13 PM PDT
Astronomical Twilight 2:45 AM PDT 11:19 PM PDT
Moon 2:46 AM PDT 6:15 PM PDT
Length of Visible Light 16h 40m
Length of Day
15h 23m
Tomorrow will be 2m 23s shorter.
Waning Crescent, 10% of the Moon is Illuminated
Today
Waning Crescent
Jul 26
New
Aug 3
First Quarter
Aug 10
Full
Aug 17
Last Quarter

Today's Extremes

State Highs State Lows

Community

WunderPhotos

Upload Photos

1,736,611 photos uploaded!

Nearby

Snow Depth

Station Depth Elevation
Moses Mountain 1 in 5300 ft
Sentinel Butte 0 in 4920 ft
Rainy Pass 0 in 4780 ft
Harts Pass 0 in 6500 ft
Swamp Creek 0 in 4000 ft

Earthquake Activity

City Distance Mag. Time & Date
No recent earthquake activity has been reported nearby.
Minimum magnitude displayed is 2.5.

Coastal Water Temperatures

Place Temperature
No Stations Reporting

Nearby Weather Stations

Station Location Temp. Dew Point Humidity Wind Precip. Elev Updated Type
RAWS NESPELEM WA, Elmer City, WA 64 °F 56 °F 74% NNW  at  5 mph 0.00 in / hr 1899 ft 6:57 AM PDT MADIS
MesoWest Coulee Dam West , Electric City, WA 60 °F 55 °F 84% SE  at  3 mph 0.00 in / hr 2562 ft 6:15 AM PDT MADIS
Ranch at Lost Creek, Tonasket, WA 60.1 °F 53 °F 77% SE  at  1.6 mph 0.00 in / hr 2313 ft 7:45 AM PDT Normal
Brewster, WA 66.5 °F 58 °F 73% NNW  at  0.0 mph 0.00 in / hr 1004 ft 7:52 AM PDT Rapid Fire
OKANOGAN / MALOTT, Okanogan, WA 67.6 °F 56 °F 67% NNW  at  3.4 mph 0.00 in / hr 910 ft 7:52 AM PDT Rapid Fire

Show More Stations Show Fewer Stations